createdAt,value
2018-09-09T00:00:48.914Z,1.33
2018-09-09T00:03:17.470Z,0.97
2018-09-09T00:05:46.134Z,1.10
2018-09-09T00:08:14.630Z,1.50
2018-09-09T00:10:43.197Z,1.10
2018-09-09T00:13:11.782Z,0.93
2018-09-09T00:15:40.281Z,0.90
2018-09-09T00:18:08.754Z,1.50
2018-09-09T00:20:37.942Z,1.03
2018-09-09T00:23:07.262Z,1.30
2018-09-09T00:25:36.270Z,1.20
2018-09-09T00:28:05.186Z,1.07
2018-09-09T00:30:33.930Z,1.33
2018-09-09T00:33:02.403Z,1.23
2018-09-09T00:35:30.886Z,1.17
2018-09-09T00:37:59.810Z,1.57
2018-09-09T00:40:28.362Z,1.30
2018-09-09T00:42:57.641Z,1.30
2018-09-09T00:45:26.149Z,1.17
2018-09-09T00:47:54.754Z,1.50
2018-09-09T00:50:28.612Z,1.23
2018-09-09T00:53:02.346Z,1.10
2018-09-09T00:55:31.362Z,1.10
2018-09-09T00:57:59.889Z,1.07
2018-09-09T01:00:33.718Z,1.10
2018-09-09T01:03:02.304Z,1.13
2018-09-09T01:05:30.874Z,1.40
2018-09-09T01:07:59.378Z,1.20
2018-09-09T01:10:27.978Z,1.40
2018-09-09T01:12:56.654Z,1.50
2018-09-09T01:15:25.192Z,1.27
2018-09-09T01:17:53.810Z,1.50
2018-09-09T01:20:22.811Z,1.40
2018-09-09T01:22:51.315Z,1.40
2018-09-09T01:25:19.849Z,1.30
2018-09-09T01:27:48.331Z,1.13
2018-09-09T01:30:16.909Z,1.50
2018-09-09T01:32:45.414Z,1.07
2018-09-09T01:35:13.893Z,1.30
2018-09-09T01:37:42.462Z,1.13
2018-09-09T01:40:11.133Z,1.20
2018-09-09T01:42:39.807Z,1.37
2018-09-09T01:45:08.314Z,1.40
2018-09-09T01:47:37.793Z,1.37
2018-09-09T01:50:06.346Z,1.17
2018-09-09T01:52:34.865Z,1.80
2018-09-09T01:55:03.486Z,1.40
2018-09-09T01:57:32.047Z,1.37
2018-09-09T02:00:00.618Z,1.30
2018-09-09T02:02:29.230Z,1.50
2018-09-09T02:04:57.881Z,1.40
2018-09-09T02:07:26.458Z,2.77
2018-09-09T02:09:54.968Z,1.60
2018-09-09T02:12:23.462Z,1.47
2018-09-09T02:14:52.018Z,1.80
2018-09-09T02:17:20.598Z,1.70
2018-09-09T02:19:49.078Z,1.30
2018-09-09T02:22:17.661Z,1.50
2018-09-09T02:24:46.252Z,1.80
2018-09-09T02:27:14.829Z,1.60
2018-09-09T02:29:43.418Z,1.70
2018-09-09T02:32:11.902Z,1.30
2018-09-09T02:34:40.375Z,1.17
2018-09-09T02:37:08.939Z,1.50
2018-09-09T02:39:37.519Z,1.70
2018-09-09T02:42:06.010Z,1.33
2018-09-09T02:44:34.498Z,1.70
2018-09-09T02:47:03.344Z,1.77
2018-09-09T02:49:31.853Z,2.10
2018-09-09T02:52:00.477Z,1.53
2018-09-09T02:54:29.017Z,2.00
2018-09-09T02:56:57.498Z,1.77
2018-09-09T02:59:26.962Z,2.00
2018-09-09T03:01:55.494Z,1.43
2018-09-09T03:04:24.082Z,1.60
2018-09-09T03:06:53.398Z,1.70
2018-09-09T03:09:21.962Z,1.73
2018-09-09T03:11:50.540Z,1.43
2018-09-09T03:14:19.855Z,1.57
2018-09-09T03:16:48.535Z,1.40
2018-09-09T03:19:17.035Z,1.30
2018-09-09T03:21:45.699Z,1.47
2018-09-09T03:24:14.278Z,1.40
2018-09-09T03:26:42.847Z,1.30
2018-09-09T03:29:11.323Z,1.40
2018-09-09T03:31:39.859Z,1.43
2018-09-09T03:34:08.498Z,1.07
2018-09-09T03:36:36.978Z,1.20
2018-09-09T03:39:07.889Z,1.10
2018-09-09T03:41:36.701Z,1.20
2018-09-09T03:44:05.418Z,1.40
2018-09-09T03:46:34.124Z,1.47
2018-09-09T03:49:02.693Z,1.00
2018-09-09T03:51:31.262Z,1.50
2018-09-09T03:53:59.818Z,1.40
2018-09-09T03:56:28.390Z,1.30
2018-09-09T03:58:56.998Z,1.37
2018-09-09T04:01:25.592Z,1.70
2018-09-09T04:03:54.112Z,1.40
2018-09-09T04:06:22.646Z,1.10
2018-09-09T04:08:51.267Z,1.50
2018-09-09T04:11:19.898Z,1.40
2018-09-09T04:13:48.380Z,1.50
2018-09-09T04:16:16.982Z,1.40
2018-09-09T04:18:45.970Z,1.30
2018-09-09T04:21:14.447Z,1.50
2018-09-09T04:23:43.076Z,1.30
2018-09-09T04:26:11.637Z,1.23
2018-09-09T04:28:40.207Z,1.30
2018-09-09T04:31:08.790Z,1.40
2018-09-09T04:33:37.399Z,1.10
2018-09-09T04:36:06.035Z,1.50
2018-09-09T04:38:34.500Z,1.03
2018-09-09T04:41:03.001Z,1.47
2018-09-09T04:43:31.491Z,1.87
2018-09-09T04:46:00.090Z,1.57
2018-09-09T04:48:28.786Z,1.90
2018-09-09T04:50:57.337Z,1.63
2018-09-09T04:53:25.910Z,1.60
2018-09-09T04:55:54.646Z,1.60
2018-09-09T04:58:23.524Z,1.43
2018-09-09T05:00:52.686Z,1.40
2018-09-09T05:03:21.198Z,1.63
2018-09-09T05:05:50.054Z,1.70
2018-09-09T05:08:18.673Z,1.93
2018-09-09T05:10:47.222Z,1.60
2018-09-09T05:13:15.722Z,1.93
2018-09-09T05:15:44.527Z,1.77
2018-09-09T05:18:13.115Z,1.67
2018-09-09T05:20:41.653Z,1.90
2018-09-09T05:23:10.270Z,1.77
2018-09-09T05:25:38.920Z,1.70
2018-09-09T05:28:07.537Z,2.20
2018-09-09T05:30:36.158Z,1.80
2018-09-09T05:33:05.910Z,1.73
2018-09-09T05:35:34.387Z,1.93
2018-09-09T05:38:03.268Z,1.90
2018-09-09T05:40:31.775Z,1.80
2018-09-09T05:43:00.374Z,1.37
2018-09-09T05:45:28.974Z,1.60
2018-09-09T05:47:57.541Z,1.70
2018-09-09T05:50:26.108Z,1.80
2018-09-09T05:52:54.670Z,1.40
2018-09-09T05:55:23.276Z,1.43
2018-09-09T05:57:52.068Z,1.50
2018-09-09T06:00:20.530Z,1.53
2018-09-09T06:02:49.097Z,1.77
2018-09-09T06:05:17.710Z,1.40
2018-09-09T06:07:46.290Z,1.40
2018-09-09T06:10:14.766Z,1.40
2018-09-09T06:12:43.337Z,1.60
2018-09-09T06:15:11.975Z,1.40
2018-09-09T06:17:40.593Z,1.70
2018-09-09T06:20:09.176Z,1.60
2018-09-09T06:22:37.674Z,1.90
2018-09-09T06:25:06.382Z,2.00
2018-09-09T06:27:35.027Z,2.30
2018-09-09T06:30:03.713Z,2.13
2018-09-09T06:32:32.954Z,2.10
2018-09-09T06:35:02.346Z,2.40
2018-09-09T06:37:31.424Z,2.70
2018-09-09T06:39:59.934Z,2.47
2018-09-09T06:42:28.551Z,2.83
2018-09-09T06:44:57.155Z,3.13
2018-09-09T06:47:25.756Z,3.20
2018-09-09T06:49:54.424Z,3.97
2018-09-09T06:52:22.921Z,3.83
2018-09-09T06:54:51.508Z,4.10
2018-09-09T06:57:20.172Z,4.20
2018-09-09T06:59:48.651Z,4.30
2018-09-09T07:02:17.226Z,3.97
2018-09-09T07:04:45.731Z,4.63
2018-09-09T07:07:14.302Z,4.10
2018-09-09T07:09:42.799Z,4.03
2018-09-09T07:12:11.407Z,3.90
2018-09-09T07:14:39.962Z,3.37
2018-09-09T07:17:08.895Z,3.47
2018-09-09T07:19:37.466Z,4.10
2018-09-09T07:22:05.966Z,3.43
2018-09-09T07:24:34.583Z,3.70
2018-09-09T07:27:03.095Z,3.17
2018-09-09T07:29:31.683Z,3.20
2018-09-09T07:32:00.230Z,3.30
2018-09-09T07:34:28.822Z,3.13
2018-09-09T07:36:57.418Z,3.10
2018-09-09T07:39:25.998Z,3.47
2018-09-09T07:41:54.618Z,3.00
2018-09-09T07:44:23.247Z,2.97
2018-09-09T07:46:51.772Z,2.40
2018-09-09T07:49:20.294Z,2.20
2018-09-09T07:51:49.053Z,1.40
2018-09-09T07:54:17.594Z,1.03
2018-09-09T07:56:46.170Z,1.23
2018-09-09T07:59:14.770Z,1.17
2018-09-09T08:01:43.278Z,0.97
2018-09-09T08:04:11.793Z,1.13
2018-09-09T08:06:40.302Z,1.10
2018-09-09T08:09:10.230Z,1.20
2018-09-09T08:11:39.549Z,1.33
2018-09-09T08:14:09.462Z,1.10
2018-09-09T08:16:38.203Z,1.00
2018-09-09T08:19:07.046Z,1.00
2018-09-09T08:21:35.818Z,0.83
2018-09-09T08:24:04.374Z,0.90
2018-09-09T08:26:32.989Z,0.80
2018-09-09T08:29:01.460Z,0.60
2018-09-09T08:31:30.023Z,0.93
2018-09-09T08:33:58.622Z,1.00
2018-09-09T08:36:27.287Z,0.77
2018-09-09T08:38:55.847Z,1.13
2018-09-09T08:41:24.462Z,1.10
2018-09-09T08:43:53.024Z,0.67
2018-09-09T08:46:21.508Z,2.10
2018-09-09T08:48:50.106Z,0.97
2018-09-09T08:51:18.686Z,1.07
2018-09-09T08:53:47.253Z,0.97
2018-09-09T08:56:15.766Z,1.30
2018-09-09T08:58:44.340Z,1.37
2018-09-09T09:01:12.899Z,1.13
2018-09-09T09:03:41.395Z,1.03
2018-09-09T09:06:10.071Z,0.80
2018-09-09T09:08:38.648Z,1.33
2018-09-09T09:11:07.371Z,1.10
2018-09-09T09:13:35.954Z,1.23
2018-09-09T09:16:04.626Z,0.80
2018-09-09T09:18:34.548Z,1.20
2018-09-09T09:21:03.096Z,1.20
2018-09-09T09:23:31.616Z,0.90
2018-09-09T09:26:00.192Z,1.00
2018-09-09T09:28:28.690Z,1.00
2018-09-09T09:30:57.280Z,1.10
2018-09-09T09:33:25.818Z,1.20
2018-09-09T09:35:55.152Z,1.22
2018-09-09T09:38:24.099Z,1.00
2018-09-09T09:40:53.398Z,1.10
2018-09-09T09:43:22.063Z,1.10
2018-09-09T09:45:50.574Z,1.17
2018-09-09T09:48:19.086Z,1.20
2018-09-09T09:50:47.648Z,1.40
2018-09-09T09:53:16.389Z,1.30
2018-09-09T09:55:45.463Z,0.90
2018-09-09T09:58:13.999Z,0.90
2018-09-09T10:00:47.670Z,1.22
2018-09-09T10:03:16.200Z,1.00
2018-09-09T10:05:44.670Z,1.30
2018-09-09T10:08:13.146Z,1.30
2018-09-09T10:10:41.639Z,1.12
2018-09-09T10:13:10.121Z,1.42
2018-09-09T10:15:39.502Z,1.52
2018-09-09T10:18:08.075Z,1.50
2018-09-09T10:20:36.594Z,1.07
2018-09-09T10:23:05.078Z,1.20
2018-09-09T10:25:33.642Z,1.05
2018-09-09T10:28:02.234Z,1.30
2018-09-09T10:30:30.998Z,1.13
2018-09-09T10:32:59.523Z,1.40
2018-09-09T10:35:28.066Z,1.25
2018-09-09T10:37:56.546Z,1.10
2018-09-09T10:40:25.122Z,1.27
2018-09-09T10:42:53.607Z,1.17
2018-09-09T10:45:22.106Z,1.20
2018-09-09T10:47:50.590Z,1.00
2018-09-09T10:50:19.306Z,1.30
2018-09-09T10:52:47.842Z,1.40
2018-09-09T10:55:16.415Z,1.23
2018-09-09T10:57:44.998Z,1.52
2018-09-09T11:00:13.599Z,1.60
2018-09-09T11:02:42.165Z,1.30
2018-09-09T11:05:10.650Z,1.25
2018-09-09T11:07:39.125Z,1.22
2018-09-09T11:10:07.813Z,1.60
2018-09-09T11:12:36.356Z,1.50
2018-09-09T11:15:05.079Z,1.72
2018-09-09T11:17:33.559Z,1.57
2018-09-09T11:20:02.140Z,1.40
2018-09-09T11:22:30.638Z,0.95
2018-09-09T11:24:59.204Z,1.65
2018-09-09T11:27:28.042Z,1.52
2018-09-09T11:29:56.749Z,1.42
2018-09-09T11:32:25.262Z,1.20
2018-09-09T11:34:54.290Z,1.45
2018-09-09T11:37:22.975Z,1.32
2018-09-09T11:39:51.544Z,1.42
2018-09-09T11:42:20.103Z,1.50
2018-09-09T11:44:48.835Z,1.25
2018-09-09T11:47:17.406Z,1.27
2018-09-09T11:49:46.057Z,1.40
2018-09-09T11:52:14.574Z,1.30
2018-09-09T11:54:43.126Z,1.10
2018-09-09T11:57:11.909Z,1.67
2018-09-09T11:59:40.490Z,1.40
2018-09-09T12:02:09.111Z,1.77
2018-09-09T12:04:37.546Z,1.57
2018-09-09T12:07:06.295Z,1.62
2018-09-09T12:09:34.831Z,1.65
2018-09-09T12:12:03.324Z,1.80
2018-09-09T12:14:31.922Z,1.57
2018-09-09T12:17:00.390Z,1.47
2018-09-09T12:19:28.992Z,1.77
2018-09-09T12:21:57.542Z,2.20
2018-09-09T12:24:26.022Z,2.00
2018-09-09T12:26:54.635Z,2.30
2018-09-09T12:29:23.130Z,1.85
2018-09-09T12:31:51.667Z,2.12
2018-09-09T12:34:20.242Z,1.80
2018-09-09T12:36:48.730Z,1.63
2018-09-09T12:39:17.234Z,1.52
2018-09-09T12:41:45.712Z,2.30
2018-09-09T12:44:19.541Z,2.17
2018-09-09T12:46:53.290Z,1.67
2018-09-09T12:49:22.013Z,2.20
2018-09-09T12:51:50.602Z,2.15
2018-09-09T12:54:19.168Z,2.05
2018-09-09T12:56:47.639Z,2.95
2018-09-09T12:59:16.208Z,2.55
2018-09-09T13:01:44.671Z,2.50
2018-09-09T13:04:13.271Z,2.90
2018-09-09T13:06:41.758Z,2.52
2018-09-09T13:09:10.685Z,2.33
2018-09-09T13:11:39.284Z,2.45
2018-09-09T13:14:07.749Z,2.55
2018-09-09T13:16:36.309Z,2.75
2018-09-09T13:19:04.910Z,2.40
2018-09-09T13:21:33.398Z,3.15
2018-09-09T13:24:01.946Z,2.95
2018-09-09T13:26:30.470Z,2.10
2018-09-09T13:28:59.092Z,1.87
2018-09-09T13:31:27.619Z,2.45
2018-09-09T13:33:56.314Z,1.87
2018-09-09T13:36:24.862Z,2.50
2018-09-09T13:38:53.511Z,1.62
2018-09-09T13:41:22.114Z,1.75
2018-09-09T13:43:50.697Z,1.98
2018-09-09T13:46:19.335Z,1.65
2018-09-09T13:48:47.828Z,2.00
2018-09-09T13:51:16.426Z,2.15
2018-09-09T13:53:44.926Z,2.17
2018-09-09T13:56:13.426Z,2.37
2018-09-09T13:58:42.022Z,2.00
2018-09-09T14:01:10.675Z,1.72
2018-09-09T14:03:39.267Z,1.98
2018-09-09T14:06:07.864Z,1.90
2018-09-09T14:08:36.357Z,1.50
2018-09-09T14:11:05.007Z,2.00
2018-09-09T14:13:33.502Z,1.72
2018-09-09T14:16:02.172Z,1.40
2018-09-09T14:18:30.774Z,1.55
2018-09-09T14:20:59.250Z,1.50
2018-09-09T14:23:27.834Z,1.85
2018-09-09T14:25:56.422Z,1.60
2018-09-09T14:28:25.088Z,1.37
2018-09-09T14:30:54.329Z,1.20
2018-09-09T14:33:22.886Z,1.35
2018-09-09T14:35:51.475Z,1.15
2018-09-09T14:38:19.973Z,2.35
2018-09-09T14:40:48.514Z,1.40
2018-09-09T14:43:17.006Z,1.20
2018-09-09T14:45:45.514Z,1.07
2018-09-09T14:48:14.159Z,1.95
2018-09-09T14:50:42.671Z,1.42
2018-09-09T14:53:11.322Z,1.65
2018-09-09T14:55:39.804Z,1.52
2018-09-09T14:58:08.422Z,1.60
2018-09-09T15:00:37.176Z,1.85
2018-09-09T15:03:05.802Z,1.50
2018-09-09T15:05:34.291Z,1.50
2018-09-09T15:08:02.826Z,1.37
2018-09-09T15:10:31.318Z,1.40
2018-09-09T15:12:59.902Z,0.98
2018-09-09T15:15:28.926Z,0.98
2018-09-09T15:17:57.511Z,1.35
2018-09-09T15:20:26.146Z,1.20
2018-09-09T15:22:54.728Z,1.20
2018-09-09T15:25:23.317Z,1.50
2018-09-09T15:27:52.518Z,1.32
2018-09-09T15:30:21.187Z,1.57
2018-09-09T15:32:49.774Z,1.15
2018-09-09T15:35:18.269Z,1.27
2018-09-09T15:37:46.854Z,1.20
2018-09-09T15:40:15.439Z,1.42
2018-09-09T15:42:44.053Z,1.17
2018-09-09T15:45:12.770Z,1.37
2018-09-09T15:47:41.369Z,1.12
2018-09-09T15:50:09.858Z,1.47
2018-09-09T15:52:38.358Z,1.50
2018-09-09T15:55:06.953Z,1.42
2018-09-09T15:57:35.539Z,1.40
2018-09-09T16:00:04.122Z,1.40
2018-09-09T16:02:32.816Z,1.55
2018-09-09T16:05:01.327Z,1.20
2018-09-09T16:07:29.846Z,1.47
2018-09-09T16:09:58.334Z,1.40
2018-09-09T16:12:26.914Z,1.12
2018-09-09T16:14:55.502Z,2.30
2018-09-09T16:17:24.166Z,1.52
2018-09-09T16:19:54.225Z,1.40
2018-09-09T16:22:23.031Z,1.25
2018-09-09T16:24:51.598Z,1.22
2018-09-09T16:27:20.239Z,1.47
2018-09-09T16:29:48.990Z,1.67
2018-09-09T16:32:17.770Z,1.73
2018-09-09T16:34:46.302Z,1.50
2018-09-09T16:37:14.834Z,1.75
2018-09-09T16:39:43.419Z,1.40
2018-09-09T16:42:11.959Z,1.60
2018-09-09T16:44:40.559Z,1.60
2018-09-09T16:47:11.302Z,1.73
2018-09-09T16:49:39.818Z,1.57
2018-09-09T16:52:08.370Z,1.90
2018-09-09T16:54:36.905Z,1.75
2018-09-09T16:57:05.715Z,1.70
2018-09-09T16:59:34.784Z,1.60
2018-09-09T17:02:03.367Z,2.12
2018-09-09T17:04:31.894Z,1.87
2018-09-09T17:07:00.532Z,1.87
2018-09-09T17:09:29.034Z,1.87
2018-09-09T17:11:57.610Z,1.90
2018-09-09T17:14:26.180Z,2.12
2018-09-09T17:16:54.864Z,1.85
2018-09-09T17:19:23.413Z,1.92
2018-09-09T17:21:52.829Z,1.95
2018-09-09T17:24:21.574Z,2.47
2018-09-09T17:26:50.066Z,2.45
2018-09-09T17:29:18.634Z,2.22
2018-09-09T17:31:47.385Z,2.30
2018-09-09T17:34:15.875Z,2.30
2018-09-09T17:36:44.362Z,2.02
2018-09-09T17:39:13.055Z,2.17
2018-09-09T17:41:41.557Z,2.12
2018-09-09T17:44:10.197Z,1.98
2018-09-09T17:46:38.822Z,2.20
2018-09-09T17:49:07.364Z,1.80
2018-09-09T17:51:35.948Z,1.80
2018-09-09T17:54:04.546Z,2.33
2018-09-09T17:56:33.154Z,2.20
2018-09-09T17:59:01.850Z,2.10
2018-09-09T18:01:30.380Z,2.08
2018-09-09T18:03:58.906Z,2.63
2018-09-09T18:06:27.454Z,2.40
2018-09-09T18:08:56.034Z,2.20
2018-09-09T18:11:24.680Z,2.30
2018-09-09T18:13:53.226Z,2.17
2018-09-09T18:16:22.022Z,2.10
2018-09-09T18:18:50.528Z,2.27
2018-09-09T18:21:19.077Z,2.70
2018-09-09T18:23:47.708Z,2.50
2018-09-09T18:26:16.310Z,2.47
2018-09-09T18:28:44.910Z,2.42
2018-09-09T18:31:13.565Z,2.40
2018-09-09T18:33:42.366Z,1.97
2018-09-09T18:36:10.950Z,2.77
2018-09-09T18:38:39.648Z,2.37
2018-09-09T18:41:09.150Z,1.95
2018-09-09T18:43:38.387Z,2.27
2018-09-09T18:46:07.482Z,2.10
2018-09-09T18:48:36.323Z,1.62
2018-09-09T18:51:04.904Z,2.07
2018-09-09T18:53:33.487Z,1.70
2018-09-09T18:56:03.302Z,1.85
2018-09-09T18:58:31.795Z,1.80
2018-09-09T19:01:01.050Z,1.70
2018-09-09T19:03:29.531Z,1.70
2018-09-09T19:05:58.002Z,1.70
2018-09-09T19:08:26.546Z,4.10
2018-09-09T19:10:55.868Z,1.90
2018-09-09T19:13:24.419Z,2.00
2018-09-09T19:15:52.914Z,1.67
2018-09-09T19:18:21.513Z,1.90
2018-09-09T19:20:50.458Z,1.97
2018-09-09T19:23:18.958Z,1.70
2018-09-09T19:25:48.546Z,1.53
2018-09-09T19:28:17.131Z,1.50
2018-09-09T19:30:45.750Z,1.67
2018-09-09T19:33:14.991Z,1.87
2018-09-09T19:35:44.190Z,1.60
2018-09-09T19:38:12.706Z,1.63
2018-09-09T19:40:41.210Z,1.80
2018-09-09T19:43:09.959Z,1.80
2018-09-09T19:45:38.541Z,1.70
2018-09-09T19:48:07.074Z,1.60
2018-09-09T19:50:35.626Z,1.63
2018-09-09T19:53:04.431Z,1.50
2018-09-09T19:55:33.027Z,1.47
2018-09-09T19:58:01.563Z,1.57
2018-09-09T20:00:30.060Z,1.97
2018-09-09T20:02:59.342Z,1.57
2018-09-09T20:05:28.546Z,1.80
2018-09-09T20:07:57.054Z,1.90
2018-09-09T20:10:25.639Z,1.80
2018-09-09T20:12:54.166Z,1.53
2018-09-09T20:15:23.022Z,1.73
2018-09-09T20:17:51.615Z,1.93
2018-09-09T20:20:21.094Z,2.00
2018-09-09T20:22:49.647Z,2.13
2018-09-09T20:25:18.532Z,2.03
2018-09-09T20:27:47.050Z,2.10
2018-09-09T20:30:15.614Z,1.93
2018-09-09T20:32:44.223Z,2.63
2018-09-09T20:35:12.900Z,2.33
2018-09-09T20:37:41.546Z,3.63
2018-09-09T20:40:10.050Z,3.17
2018-09-09T20:42:38.610Z,2.63
2018-09-09T20:45:07.512Z,2.97
2018-09-09T20:47:36.090Z,2.60
2018-09-09T20:50:04.674Z,3.63
2018-09-09T20:52:33.170Z,2.93
2018-09-09T20:55:01.779Z,3.07
2018-09-09T20:57:30.258Z,3.07
2018-09-09T20:59:58.938Z,3.20
2018-09-09T21:02:27.475Z,3.10
2018-09-09T21:04:55.990Z,3.50
2018-09-09T21:07:24.542Z,3.70
2018-09-09T21:09:53.019Z,3.30
2018-09-09T21:12:22.525Z,3.53
2018-09-09T21:14:51.018Z,3.67
2018-09-09T21:17:19.689Z,4.27
2018-09-09T21:19:48.206Z,3.67
2018-09-09T21:22:16.687Z,3.47
2018-09-09T21:24:45.265Z,3.57
2018-09-09T21:27:13.918Z,3.50
2018-09-09T21:29:42.487Z,3.83
2018-09-09T21:32:10.994Z,3.37
2018-09-09T21:34:39.835Z,3.70
2018-09-09T21:37:08.352Z,5.07
2018-09-09T21:39:36.829Z,4.13
2018-09-09T21:42:05.345Z,4.00
2018-09-09T21:44:33.826Z,4.50
2018-09-09T21:47:02.411Z,3.80
2018-09-09T21:49:31.063Z,3.97
2018-09-09T21:51:59.534Z,4.03
2018-09-09T21:54:28.074Z,3.77
2018-09-09T21:56:56.628Z,4.13
2018-09-09T21:59:25.206Z,4.55
2018-09-09T22:01:58.938Z,4.40
2018-09-09T22:04:28.384Z,4.40
2018-09-09T22:06:56.914Z,3.83
2018-09-09T22:09:25.378Z,3.95
2018-09-09T22:11:53.939Z,4.30
2018-09-09T22:14:22.563Z,3.70
2018-09-09T22:16:51.118Z,3.40
2018-09-09T22:19:19.791Z,3.20
2018-09-09T22:21:49.644Z,3.00
2018-09-09T22:24:19.750Z,2.70
2018-09-09T22:26:48.218Z,2.70
2018-09-09T22:29:16.798Z,2.20
2018-09-09T22:31:45.281Z,2.60
2018-09-09T22:34:16.147Z,1.80
2018-09-09T22:36:44.807Z,1.50
2018-09-09T22:39:13.517Z,1.50
2018-09-09T22:41:42.156Z,0.97
2018-09-09T22:44:12.718Z,1.00
2018-09-09T22:46:41.817Z,1.27
2018-09-09T22:49:10.382Z,0.80
2018-09-09T22:51:39.290Z,0.90
2018-09-09T22:54:07.934Z,0.90
2018-09-09T22:56:36.402Z,0.55
2018-09-09T22:59:04.922Z,1.00
2018-09-09T23:01:33.399Z,0.60
2018-09-09T23:04:01.907Z,0.80
2018-09-09T23:06:30.547Z,0.90
2018-09-09T23:08:59.154Z,0.80
2018-09-09T23:11:27.718Z,1.33
2018-09-09T23:13:56.242Z,1.87
2018-09-09T23:16:24.815Z,1.77
2018-09-09T23:18:53.370Z,1.07
2018-09-09T23:21:21.964Z,1.00
2018-09-09T23:23:50.730Z,1.27
2018-09-09T23:26:19.250Z,1.20
2018-09-09T23:28:47.827Z,1.40
2018-09-09T23:31:16.309Z,1.20
2018-09-09T23:33:44.994Z,1.67
2018-09-09T23:36:13.735Z,2.00
2018-09-09T23:38:42.267Z,1.90
2018-09-09T23:41:10.742Z,1.67
2018-09-09T23:43:39.450Z,1.90
2018-09-09T23:46:07.978Z,1.80
2018-09-09T23:48:36.454Z,2.20
2018-09-09T23:51:05.086Z,2.20
2018-09-09T23:53:33.622Z,2.10
2018-09-09T23:56:02.202Z,3.60
2018-09-09T23:58:30.727Z,4.10
